Springfield, Georgia
Current Conditions -  °F | °C
As of 2:53 AM on Monday 22 Dec 2014 (Local Time) from KSAV Reporting Station
Haze Haze  
Wind Chill:   Ceiling: 300
Heat Index:   Visibility: 6mi
Dew Point:   Wind: 6mph
Humidity: 93%   Direction: 40°NE
Pressure: 30.04"   Gusts: NA
Location:  32.37°N, 81.31°W
Report Text: KSAV 220753Z AUTO 04005KT 6SM BR OVC003 09/08 A3004 RMK AO2 SLP172 T00890078 TSNO
Loading
Personal Weather Stations






























Interactive Weather Map New forecast layout! Learn more

10-Day Weather Forecast

Advertisements
Track Severe Weather on mobile